Latest Coastal Weather Observations for Cape Otway

IDV60701

Issued at 7:02 pm EDT Thursday 21 October 2021 (issued every 10 minutes, with the page automatically refreshed every 10 minutes)

About coastal observations | Map of coastal stations | Coastal observations for VIC | Marine services | Other Formats
Station Details ID: 090015 Name: CAPE OTWAY LIGHTHOUSE Lat: -38.86 Lon: 143.51 Height: 80.0 m
Data from the previous 72 hours. | See also: Recent months at Cape Otway
Date/Time
EDT
Wind Sea
Height
m
Swell Vis
km
Cloud Weather Temp
°C
Press
MSL
hPa
Rain since
9am
mm
Dir  Spd
kts
Gust
kts
Height
m
Period
s
Dir
21/07:00pm NW 11 14 - - - - - - - 15.6 1012.6 0.0
21/06:30pm NNW 13 17 - - - - - - - 15.6 1012.3 0.0
21/06:00pm NNW 7 12 - - - - - - - 17.1 1011.9 0.0
21/05:30pm N 5 7 - - - - - - - 19.6 1011.4 0.0
21/05:00pm NW 7 10 - - - - - - - 21.3 1011.2 0.0
21/04:30pm NE 7 13 - - - - - - - 22.1 1011.0 0.0
21/04:00pm E 6 9 - - - - - - - 20.6 1011.1 0.0
21/03:30pm NNE 7 10 - - - - - - - 23.5 1011.1 0.0
21/03:00pm N 7 11 - - - - - - - 22.9 1011.6 0.0
21/02:30pm NNW 10 15 - - - - - - - 22.2 1011.7 0.0
21/02:00pm NNE 5 7 - - - - - - - 22.5 1011.9 0.0
21/01:30pm N 11 17 - - - - - - - 22.4 1012.0 0.0
21/01:00pm NNE 12 20 - - - - - - - 21.4 1011.8 0.0
21/12:30pm N 12 20 - - - - - - - 20.4 1012.2 0.0
21/12:00pm N 14 22 - - - - - - - 19.5 1012.2 0.0
21/11:38am N 15 25 - - - - - - - 19.6 1012.2 0.0
21/11:30am N 17 25 - - - - - - - 19.3 1012.2 0.0
21/11:00am N 18 26 - - - - - - - 19.3 1012.1 0.0
21/10:30am N 19 29 - - - - - - - 19.0 1012.1 0.0
21/10:00am NNE 17 28 - - - - - - - 18.9 1012.0 0.0
21/09:30am N 16 27 - - - - - - - 18.8 1012.1 0.0
21/09:00am N 16 30 - - - - - - - 19.1 1012.1 0.0
21/08:44am N 15 25 - - - - - - - 19.0 1012.0 0.0
21/08:30am N 14 23 - - - - - - - 18.9 1012.1 0.0
21/08:00am N 13 24 - - - - - - - 18.9 1011.7 0.0
21/07:30am N 9 21 - - - - - - - 18.9 1011.9 0.0
21/07:00am NNE 8 13 - - - - - - - 17.9 1011.4 0.0
21/06:30am ENE 8 10 - - - - - - - 14.7 1011.5 0.0
21/06:00am ENE 9 12 - - - - - - - 14.0 1011.4 0.0
21/05:30am ENE 9 12 - - - - - - - 13.9 1011.4 0.0
21/05:00am ENE 11 16 - - - - - - - 13.8 1011.4 0.0
21/04:30am ENE 14 21 - - - - - - - 13.8 1011.3 0.0
21/04:00am ENE 13 19 - - - - - - - 13.8 1011.7 0.0
21/03:30am ENE 13 19 - - - - - - - 13.8 1011.9 0.0
21/03:00am ENE 13 19 - - - - - - - 13.9 1012.4 0.0
21/02:30am ENE 14 18 - - - - - - - 13.9 1012.5 0.0
21/02:00am ENE 14 21 - - - - - - - 14.0 1013.0 0.0
21/01:35am ENE 15 25 - - - - - - - 14.1 1013.1 0.0
21/01:30am ENE 16 24 - - - - - - - 14.1 1013.2 0.0
21/01:00am ENE 18 25 - - - - - - - 14.2 1013.2 0.0
21/12:30am ENE 18 25 - - - - - - - 14.3 1013.8 0.0
21/12:00am ENE 16 22 - - - - - - - 14.3 1014.3 0.0
 
Date/Time
EDT
Wind Sea
Height
m
Swell Vis
km
Cloud Weather Temp
°C
Press
MSL
hPa
Rain since
9am
mm
Dir  Spd
kts
Gust
kts
Height
m
Period
s
Dir
20/11:30pm ENE 15 22 - - - - - - - 14.5 1014.5 0.0
20/11:00pm E 14 20 - - - - - - - 14.4 1014.7 0.0
20/10:30pm E 14 21 - - - - - - - 14.4 1015.0 0.0
20/10:00pm ENE 16 21 - - - - - - - 14.4 1014.9 0.0
20/09:30pm ENE 15 22 - - - - - - - 14.4 1015.2 0.0
20/09:00pm ENE 16 25 - - - - - - - 14.3 1014.9 0.0
20/08:30pm ENE 17 26 - - - - - - - 14.3 1015.0 0.0
20/08:22pm ENE 16 26 - - - - - - - 14.2 1015.0 0.0
20/08:00pm ENE 17 24 - - - - - - - 14.2 1015.0 0.0
20/07:30pm ENE 17 27 - - - - - - - 14.3 1015.0 0.0
20/07:00pm ENE 18 26 - - - - - - - 14.4 1015.1 0.0
20/06:30pm ENE 18 27 - - - - - - - 14.5 1015.4 0.0
20/06:09pm ENE 17 27 - - - - - - - 14.7 1015.4 0.0
20/06:00pm ENE 17 23 - - - - - - - 14.9 1015.4 0.0
20/05:40pm ENE 15 25 - - - - - - - 15.0 1015.6 0.0
20/05:30pm ENE 17 24 - - - - - - - 15.1 1015.6 0.0
20/05:00pm ENE 17 27 - - - - - - - 15.1 1015.8 0.0
20/04:30pm ENE 18 30 - - - - - - - 15.3 1016.0 0.0
20/04:26pm E 18 30 - - - - - - - 15.2 1016.1 0.0
20/04:00pm ENE 17 25 - - - - - - - 15.4 1016.6 0.0
20/03:30pm E 17 24 - - - - - - - 15.2 1016.9 0.0
20/03:12pm E 16 26 - - - - - - - 15.2 1017.1 0.0
20/03:00pm E 17 25 - - - - - - - 15.3 1017.4 0.0
20/02:30pm E 16 24 - - - - - - - 15.4 1017.8 0.0
20/02:08pm E 16 26 - - - - - - - 15.1 1018.0 0.0
20/02:00pm E 16 25 - - - - - - - 15.2 1018.2 0.0
20/01:30pm ENE 17 24 - - - - - - - 15.4 1018.8 0.0
20/01:08pm ENE 17 27 - - - - - - - 15.1 1019.1 0.0
20/01:00pm ENE 17 26 - - - - - - - 14.9 1019.2 0.0
20/12:30pm ENE 19 29 - - - - - - - 14.6 1019.4 0.0
20/12:08pm E 17 27 - - - - - - - 14.7 1019.6 0.0
20/12:00pm ENE 17 25 - - - - - - - 14.7 1019.8 0.0
20/11:30am ENE 18 29 - - - - - - - 14.7 1020.1 0.0
20/11:05am E 19 29 - - - - - - - 14.1 1019.9 0.0
20/11:00am E 19 27 - - - - - - - 14.1 1019.8 0.0
20/10:30am ENE 21 31 - - - - - - - 13.9 1020.0 0.0
20/10:00am ENE 21 33 - - - - - - - 14.5 1020.0 0.0
20/09:30am ENE 23 35 - - - - - - - 13.8 1019.8 0.0
20/09:00am ENE 22 36 - - - - - - - 13.2 1020.0 0.0
20/08:30am ENE 21 34 - - - - - - - 12.9 1020.0 0.0
20/08:05am ENE 23 33 - - - - - - - 12.6 1020.4 0.0
20/08:00am ENE 23 32 - - - - - - - 12.8 1020.4 0.0
20/07:30am ENE 23 35 - - - - - - - 12.5 1020.6 0.0
20/07:04am E 22 33 - - - - - - - 12.2 1020.9 0.0
20/07:00am E 23 32 - - - - - - - 12.2 1021.0 0.0
20/06:31am E 20 30 - - - - - - - 12.1 1021.0 0.0
20/06:30am E 20 29 - - - - - - - 12.0 1021.0 0.0
20/06:00am E 21 31 - - - - - - - 12.3 1020.9 0.0
20/05:30am E 21 31 - - - - - - - 12.3 1020.6 0.0
20/05:02am E 18 29 - - - - - - - 12.3 1021.4 0.0
20/05:00am E 18 25 - - - - - - - 12.3 1021.5 0.0
20/04:33am ENE 18 29 - - - - - - - 12.3 1021.9 0.0
20/04:30am E 17 26 - - - - - - - 12.4 1022.0 0.0
20/04:15am ENE 17 29 - - - - - - - 12.3 1022.0 0.0
20/04:00am ENE 17 26 - - - - - - - 12.3 1021.9 0.0
20/03:30am ENE 17 26 - - - - - - - 12.2 1021.8 0.0
20/03:17am ENE 15 25 - - - - - - - 12.3 1022.1 0.0
20/03:00am ENE 15 23 - - - - - - - 12.2 1022.4 0.0
20/02:30am ENE 18 29 - - - - - - - 12.3 1022.6 0.0
20/02:28am ENE 17 29 - - - - - - - 12.3 1022.7 0.0
20/02:00am ENE 16 22 - - - - - - - 12.2 1023.2 0.0
20/01:31am ENE 17 30 - - - - - - - 12.2 1023.2 0.0
20/01:30am ENE 17 26 - - - - - - - 12.2 1023.3 0.0
20/01:16am ENE 15 28 - - - - - - - 12.4 1023.8 0.0
20/01:00am ENE 15 22 - - - - - - - 12.4 1024.0 0.0
20/12:39am E 16 26 - - - - - - - 12.3 1024.1 0.0
20/12:30am ENE 16 24 - - - - - - - 12.2 1024.0 0.0
20/12:00am E 16 23 - - - - - - - 12.5 1024.3 0.0
 
Date/Time
EDT
Wind Sea
Height
m
Swell Vis
km
Cloud Weather Temp
°C
Press
MSL
hPa
Rain since
9am
mm
Dir  Spd
kts
Gust
kts
Height
m
Period
s
Dir
19/11:30pm E 15 22 - - - - - - - 12.4 1023.6 0.0
19/11:00pm E 16 22 - - - - - - - 12.6 1024.3 0.0
19/10:30pm E 15 21 - - - - - - - 12.3 1024.8 0.0
19/10:00pm E 12 19 - - - - - - - 12.3 1024.8 0.0
19/09:30pm E 10 17 - - - - - - - 12.3 1025.0 0.0
19/09:00pm E 11 17 - - - - - - - 12.2 1024.8 0.0
19/08:30pm E 11 20 - - - - - - - 12.1 1024.7 0.0
19/08:00pm E 10 18 - - - - - - - 12.0 1024.3 0.0
19/07:30pm E 11 19 - - - - - - - 12.2 1024.1 0.0
19/07:00pm E 11 19 - - - - - - - 12.2 1024.4 0.0
19/06:30pm E 10 18 - - - - - - - 12.3 1024.5 0.0
19/06:00pm E 10 16 - - - - - - - 12.8 1024.0 0.0
19/05:30pm E 9 15 - - - - - - - 12.9 1024.1 0.0
19/05:00pm ENE 9 15 - - - - - - - 13.1 1023.9 0.0
19/04:30pm E 10 18 - - - - - - - 13.3 1023.7 0.0
19/04:00pm E 10 15 - - - - - - - 13.5 1023.7 0.0
19/03:30pm ESE 10 13 - - - - - - - 13.7 1024.5 0.0
19/03:00pm ESE 11 15 - - - - - - - 13.3 1024.4 0.0
19/02:30pm E 9 16 - - - - - - - 14.1 1024.0 0.0
19/02:00pm ESE 13 16 - - - - - - - 13.3 1023.9 0.0
19/01:30pm ESE 13 17 - - - - - - - 13.9 1023.7 0.0
19/01:00pm SE 10 15 - - - - - - - 13.7 1024.2 0.0
19/12:30pm S 7 11 - - - - - - - 14.0 1024.3 0.0
19/12:00pm W 6 10 - - - - - - - 14.3 1024.1 0.0
19/11:30am WSW 6 11 - - - - - - - 13.7 1024.1 0.0
19/11:00am SW 6 9 - - - - - - - 13.0 1024.2 0.0
19/10:30am WSW 5 7 - - - - - - - 12.3 1024.1 0.0
19/10:00am WSW 5 8 - - - - - - - 12.0 1024.0 0.0
19/09:30am WSW 6 9 - - - - - - - 12.2 1023.9 0.0
19/09:00am WSW 6 9 - - - - - - - 12.0 1023.7 1.2
19/08:30am SW 8 12 - - - - - - - 11.5 1023.4 1.2
19/08:00am SW 8 13 - - - - - - - 11.2 1023.1 1.2
19/07:30am W 6 9 - - - - - - - 11.1 1022.7 1.2
19/07:00am SSW 7 12 - - - - - - - 10.7 1022.1 1.2
19/06:30am WSW 6 10 - - - - - - - 10.5 1021.6 1.2
19/06:00am WSW 6 9 - - - - - - - 10.6 1021.0 1.2
19/05:30am W 6 10 - - - - - - - 10.6 1020.5 1.2
19/05:00am WSW 7 16 - - - - - - - 10.6 1019.8 1.2
19/04:30am SSW 7 17 - - - - - - - 10.0 1019.5 1.2
19/04:00am WSW 8 11 - - - - - - - 10.6 1019.6 0.8
19/03:30am WSW 6 9 - - - - - - - 11.0 1019.4 0.8
19/03:00am SW 6 9 - - - - - - - 11.0 1019.6 0.8
19/02:30am SW 7 11 - - - - - - - 11.1 1019.4 0.8
19/02:00am SSW 9 13 - - - - - - - 11.2 1019.5 0.8
19/01:30am SSW 9 12 - - - - - - - 11.3 1019.6 0.8
19/01:00am SSW 12 17 - - - - - - - 11.3 1019.5 0.8
19/12:30am SSW 14 19 - - - - - - - 11.5 1019.2 0.8
19/12:00am SSW 13 17 - - - - - - - 11.2 1019.1 0.8
 
Date/Time
EDT
Wind Sea
Height
m
Swell Vis
km
Cloud Weather Temp
°C
Press
MSL
hPa
Rain since
9am
mm
Dir  Spd
kts
Gust
kts
Height
m
Period
s
Dir
18/11:30pm SSW 12 16 - - - - - - - 11.3 1018.9 0.8
18/11:00pm SSW 10 15 - - - - - - - 11.2 1018.7 0.8
18/10:30pm SW 7 10 - - - - - - - 10.7 1018.5 0.8
18/10:00pm SW 10 13 - - - - - - - 11.0 1018.4 0.6
18/09:30pm SW 11 13 - - - - - - - 10.9 1018.2 0.6
18/09:00pm SW 7 10 - - - - - - Recent precip. 10.6 1017.6 0.6
18/08:30pm SSW 13 19 - - - - - - - 11.5 1017.1 0.2
18/08:00pm SW 13 16 - - - - - - - 11.8 1016.9 0.2
18/07:30pm SW 15 19 - - - - - - - 11.8 1016.6 0.2

Other formats

Comma delimited format used in spreadsheet applications
http://www.bom.gov.au/fwo/IDV60701/IDV60701.94842.axf

JavaScript Object Notation format (JSON) in row-major order
http://www.bom.gov.au/fwo/IDV60701/IDV60701.94842.json

Data quality

Most of these data are generated automatically and are frequently updated. Quality checks on data are not normally performed. It is possible for incorrect values to appear. Refer to information at About Latest Weather Observations and please check the disclaimer before using these data.